Terminal Aerodrome Forecast
Issued by NWS

Home | Current Version | Previous Version | Text Only | Print | Product List | Glossary On
Versions: 1 2 3 4 5 6 7 8 9 10 11 12 13
000
FTUS42 TJSJ 240540
TAFKPK
TAF
TKPK 240540Z 2406/2506 05010KT P6SM VCSH SCT020
     FM241400 08010KT P6SM VCSH SCT020
     FM242300 06007KT P6SM FEW020
      AMD NOT SKED TIL 241100=

USA.gov is the U.S. government's official web portal to all federal, state and local government web resources and services.